createdAt,value
2019-05-21T00:01:58.103Z,18.48
2019-05-21T00:04:30.129Z,18.46
2019-05-21T00:07:03.452Z,18.45
2019-05-21T00:09:40.979Z,18.43
2019-05-21T00:12:13.465Z,18.41
2019-05-21T00:14:48.388Z,18.40
2019-05-21T00:17:21.371Z,18.40
2019-05-21T00:19:58.638Z,18.37
2019-05-21T00:22:31.871Z,18.35
2019-05-21T00:25:04.315Z,18.36
2019-05-21T00:27:35.988Z,18.34
2019-05-21T00:31:01.700Z,18.33
2019-05-21T00:34:41.801Z,18.32
2019-05-21T00:37:55.716Z,18.27
2019-05-21T00:41:21.552Z,18.23
2019-05-21T00:43:59.679Z,18.17
2019-05-21T00:46:31.450Z,18.13
2019-05-21T00:49:03.395Z,18.13
2019-05-21T00:51:35.144Z,18.12
2019-05-21T00:54:06.890Z,18.10
2019-05-21T00:56:40.125Z,18.11
2019-05-21T00:59:12.072Z,18.10
2019-05-21T01:01:43.991Z,18.09
2019-05-21T01:04:17.480Z,18.10
2019-05-21T01:06:49.431Z,18.07
2019-05-21T01:09:21.152Z,18.05
2019-05-21T01:11:55.077Z,18.02
2019-05-21T01:14:28.005Z,18.00
2019-05-21T01:17:00.169Z,17.99
2019-05-21T01:19:32.167Z,17.98
2019-05-21T01:22:04.195Z,17.99
2019-05-21T01:24:35.839Z,17.99
2019-05-21T01:27:07.597Z,17.98
2019-05-21T01:29:39.682Z,17.97
2019-05-21T01:32:12.094Z,17.96
2019-05-21T01:34:45.395Z,17.96
2019-05-21T01:37:17.264Z,17.95
2019-05-21T01:39:50.268Z,17.93
2019-05-21T01:42:22.448Z,17.92
2019-05-21T01:44:54.352Z,17.90
2019-05-21T01:47:26.637Z,17.87
2019-05-21T01:49:58.870Z,17.86
2019-05-21T01:52:30.606Z,17.84
2019-05-21T01:55:02.229Z,17.82
2019-05-21T01:57:33.904Z,17.80
2019-05-21T02:00:06.395Z,17.78
2019-05-21T02:02:38.694Z,17.78
2019-05-21T02:05:10.567Z,17.78
2019-05-21T02:07:42.227Z,17.77
2019-05-21T02:10:14.079Z,17.75
2019-05-21T02:12:45.734Z,17.76
2019-05-21T02:15:17.734Z,17.76
2019-05-21T02:17:49.958Z,17.77
2019-05-21T02:20:21.945Z,17.76
2019-05-21T02:22:53.765Z,17.76
2019-05-21T02:25:25.462Z,17.73
2019-05-21T02:27:57.239Z,17.72
2019-05-21T02:30:30.304Z,17.72
2019-05-21T02:33:02.865Z,17.71
2019-05-21T02:35:52.973Z,17.72
2019-05-21T02:38:08.214Z,17.72
2019-05-21T02:40:39.871Z,17.71
2019-05-21T02:43:11.608Z,17.69
2019-05-21T02:45:43.323Z,17.69
2019-05-21T02:48:16.281Z,17.68
2019-05-21T02:50:48.424Z,17.67
2019-05-21T02:53:20.114Z,17.66
2019-05-21T02:55:51.779Z,17.68
2019-05-21T02:58:23.682Z,17.67
2019-05-21T03:01:26.539Z,17.65
2019-05-21T03:03:59.025Z,17.63
2019-05-21T03:06:30.669Z,17.61
2019-05-21T03:09:02.660Z,17.59
2019-05-21T03:11:34.364Z,17.57
2019-05-21T03:14:06.003Z,17.56
2019-05-21T03:16:38.113Z,17.54
2019-05-21T03:19:10.462Z,17.52
2019-05-21T03:21:42.444Z,17.50
2019-05-21T03:24:14.385Z,17.48
2019-05-21T03:26:46.262Z,17.47
2019-05-21T03:29:17.940Z,17.47
2019-05-21T03:31:49.594Z,17.45
2019-05-21T03:34:22.238Z,17.47
2019-05-21T03:36:54.178Z,17.48
2019-05-21T03:39:25.831Z,17.46
2019-05-21T03:41:57.687Z,17.45
2019-05-21T03:44:29.541Z,17.44
2019-05-21T03:47:01.205Z,17.44
2019-05-21T03:49:33.267Z,17.43
2019-05-21T03:52:05.319Z,17.42
2019-05-21T03:54:37.094Z,17.42
2019-05-21T03:57:08.738Z,17.41
2019-05-21T03:59:40.990Z,17.40
2019-05-21T04:02:12.667Z,17.38
2019-05-21T04:04:45.012Z,17.37
2019-05-21T04:07:16.684Z,17.38
2019-05-21T04:09:48.336Z,17.36
2019-05-21T04:12:19.988Z,17.38
2019-05-21T04:14:55.833Z,17.38
2019-05-21T04:17:37.531Z,17.38
2019-05-21T04:20:10.842Z,17.36
2019-05-21T04:23:01.524Z,17.36
2019-05-21T04:25:34.295Z,17.35
2019-05-21T04:28:06.310Z,17.34
2019-05-21T04:30:38.488Z,17.34
2019-05-21T04:33:10.232Z,17.35
2019-05-21T04:35:42.453Z,17.33
2019-05-21T04:38:14.246Z,17.32
2019-05-21T04:40:46.253Z,17.31
2019-05-21T04:43:17.977Z,17.33
2019-05-21T04:45:49.795Z,17.31
2019-05-21T04:48:21.865Z,17.31
2019-05-21T04:50:54.493Z,17.32
2019-05-21T04:53:26.205Z,17.31
2019-05-21T04:55:58.179Z,17.31
2019-05-21T04:58:30.413Z,17.32
2019-05-21T05:01:02.293Z,17.31
2019-05-21T05:03:33.972Z,17.28
2019-05-21T05:06:06.615Z,17.26
2019-05-21T05:08:38.318Z,17.25
2019-05-21T05:11:10.063Z,17.22
2019-05-21T05:13:41.727Z,17.20
2019-05-21T05:16:13.479Z,17.16
2019-05-21T05:18:45.171Z,17.13
2019-05-21T05:21:16.872Z,17.09
2019-05-21T05:23:49.267Z,17.08
2019-05-21T05:26:21.066Z,17.06
2019-05-21T05:28:52.712Z,17.04
2019-05-21T05:31:24.365Z,17.04
2019-05-21T05:33:56.574Z,17.01
2019-05-21T05:36:28.646Z,17.00
2019-05-21T05:39:00.987Z,16.99
2019-05-21T05:41:32.859Z,16.97
2019-05-21T05:44:04.608Z,16.94
2019-05-21T05:46:36.379Z,16.93
2019-05-21T05:49:14.182Z,16.91
2019-05-21T05:51:45.868Z,16.85
2019-05-21T05:54:18.359Z,16.80
2019-05-21T05:56:50.066Z,16.77
2019-05-21T05:59:21.827Z,16.73
2019-05-21T06:01:53.772Z,16.71
2019-05-21T06:04:25.477Z,16.70
2019-05-21T06:06:57.204Z,16.68
2019-05-21T06:09:29.498Z,16.67
2019-05-21T06:12:01.154Z,16.64
2019-05-21T06:14:32.963Z,16.63
2019-05-21T06:17:04.769Z,16.62
2019-05-21T06:19:36.658Z,16.64
2019-05-21T06:22:08.323Z,16.66
2019-05-21T06:24:41.043Z,16.70
2019-05-21T06:27:12.782Z,16.73
2019-05-21T06:29:44.679Z,16.75
2019-05-21T06:32:16.736Z,16.76
2019-05-21T06:34:48.843Z,16.73
2019-05-21T06:37:21.189Z,16.70
2019-05-21T06:39:53.515Z,16.67
2019-05-21T06:42:25.411Z,16.63
2019-05-21T06:44:57.197Z,16.60
2019-05-21T06:47:28.841Z,16.61
2019-05-21T06:50:00.868Z,16.61
2019-05-21T06:52:32.579Z,16.61
2019-05-21T06:55:04.935Z,16.60
2019-05-21T06:57:36.662Z,16.60
2019-05-21T07:00:08.931Z,16.60
2019-05-21T07:02:40.755Z,16.62
2019-05-21T07:05:12.750Z,16.64
2019-05-21T07:07:44.489Z,16.64
2019-05-21T07:10:18.592Z,16.64
2019-05-21T07:12:50.306Z,16.64
2019-05-21T07:15:22.722Z,16.62
2019-05-21T07:17:54.581Z,16.62
2019-05-21T07:20:26.721Z,16.61
2019-05-21T07:22:58.773Z,16.60
2019-05-21T07:25:31.441Z,16.60
2019-05-21T07:28:03.166Z,16.59
2019-05-21T07:30:35.238Z,16.59
2019-05-21T07:33:07.513Z,16.60
2019-05-21T07:35:39.664Z,16.61
2019-05-21T07:38:11.695Z,16.62
2019-05-21T07:40:43.429Z,16.62
2019-05-21T07:43:15.609Z,16.62
2019-05-21T07:45:47.373Z,16.64
2019-05-21T07:48:19.324Z,16.64
2019-05-21T07:50:51.440Z,16.65
2019-05-21T07:53:23.185Z,16.65
2019-05-21T07:55:54.866Z,16.65
2019-05-21T07:58:27.472Z,16.64
2019-05-21T08:01:01.135Z,16.64
2019-05-21T08:03:32.621Z,16.63
2019-05-21T08:06:04.318Z,16.62
2019-05-21T08:08:37.594Z,16.61
2019-05-21T08:11:09.610Z,16.60
2019-05-21T08:13:41.985Z,16.60
2019-05-21T08:16:13.850Z,16.61
2019-05-21T08:18:45.942Z,16.62
2019-05-21T08:21:17.902Z,16.63
2019-05-21T08:23:51.092Z,16.63
2019-05-21T08:26:22.842Z,16.63
2019-05-21T08:28:55.272Z,16.63
2019-05-21T08:31:27.102Z,16.63
2019-05-21T08:33:58.915Z,16.64
2019-05-21T08:36:30.627Z,16.63
2019-05-21T08:39:02.467Z,16.61
2019-05-21T08:41:34.553Z,16.61
2019-05-21T08:44:07.122Z,16.61
2019-05-21T08:46:38.899Z,16.64
2019-05-21T08:49:10.780Z,16.66
2019-05-21T08:51:42.851Z,16.68
2019-05-21T08:54:16.274Z,16.66
2019-05-21T08:56:48.377Z,16.66
2019-05-21T08:59:21.198Z,16.65
2019-05-21T09:01:52.889Z,16.68
2019-05-21T09:04:43.626Z,16.69
2019-05-21T09:06:58.125Z,16.73
2019-05-21T09:09:48.243Z,16.74
2019-05-21T09:12:03.329Z,16.73
2019-05-21T09:14:36.039Z,16.73
2019-05-21T09:17:07.716Z,16.73
2019-05-21T09:19:39.674Z,16.74
2019-05-21T09:22:11.583Z,16.72
2019-05-21T09:24:43.278Z,16.71
2019-05-21T09:27:14.996Z,16.70
2019-05-21T09:29:47.741Z,16.74
2019-05-21T09:32:21.204Z,16.74
2019-05-21T09:34:53.535Z,16.73
2019-05-21T09:37:25.519Z,16.71
2019-05-21T09:39:57.676Z,16.72
2019-05-21T09:42:31.730Z,16.73
2019-05-21T09:45:05.879Z,16.76
2019-05-21T09:47:37.479Z,16.78
2019-05-21T09:50:09.481Z,16.77
2019-05-21T09:52:41.452Z,16.77
2019-05-21T09:55:13.761Z,16.77
2019-05-21T09:58:07.376Z,16.80
2019-05-21T10:01:04.437Z,16.83
2019-05-21T10:03:39.485Z,16.84
2019-05-21T10:06:11.158Z,16.85
2019-05-21T10:08:42.980Z,16.89
2019-05-21T10:11:14.935Z,16.93
2019-05-21T10:13:46.649Z,16.96
2019-05-21T10:16:20.690Z,16.98
2019-05-21T10:18:52.554Z,17.02
2019-05-21T10:21:24.906Z,17.04
2019-05-21T10:23:56.739Z,17.05
2019-05-21T10:26:28.648Z,17.06
2019-05-21T10:29:00.294Z,17.09
2019-05-21T10:31:32.705Z,17.12
2019-05-21T10:34:07.327Z,17.17
2019-05-21T10:36:39.008Z,17.21
2019-05-21T10:39:11.100Z,17.25
2019-05-21T10:41:45.949Z,17.30
2019-05-21T10:44:16.178Z,17.33
2019-05-21T10:46:48.784Z,17.37
2019-05-21T10:49:20.527Z,17.42
2019-05-21T10:51:52.418Z,17.44
2019-05-21T10:54:24.340Z,17.46
2019-05-21T10:56:56.052Z,17.48
2019-05-21T10:59:27.868Z,17.50
2019-05-21T11:02:17.386Z,17.50
2019-05-21T11:05:00.558Z,17.50
2019-05-21T11:07:32.445Z,17.52
2019-05-21T11:10:04.559Z,17.54
2019-05-21T11:12:36.808Z,17.58
2019-05-21T11:15:09.725Z,17.60
2019-05-21T11:17:58.952Z,17.63
2019-05-21T11:20:17.267Z,17.65
2019-05-21T11:22:49.428Z,17.67
2019-05-21T11:25:21.443Z,17.68
2019-05-21T11:27:53.841Z,17.70
2019-05-21T11:30:25.674Z,17.73
2019-05-21T11:32:58.173Z,17.74
2019-05-21T11:35:30.370Z,17.75
2019-05-21T11:38:02.244Z,17.76
2019-05-21T11:40:34.294Z,17.76
2019-05-21T11:43:06.249Z,17.77
2019-05-21T11:45:39.749Z,17.79
2019-05-21T11:48:12.868Z,17.79
2019-05-21T11:50:45.036Z,17.79
2019-05-21T11:53:16.965Z,17.79
2019-05-21T11:55:49.022Z,17.81
2019-05-21T11:58:20.915Z,17.80
2019-05-21T12:00:52.707Z,17.80
2019-05-21T12:03:25.263Z,17.81
2019-05-21T12:05:57.005Z,17.78
2019-05-21T12:08:28.882Z,17.77
2019-05-21T12:11:00.574Z,17.81
2019-05-21T12:13:32.290Z,17.84
2019-05-21T12:16:04.131Z,17.86
2019-05-21T12:18:36.649Z,17.89
2019-05-21T12:21:08.868Z,17.90
2019-05-21T12:23:40.756Z,17.93
2019-05-21T12:26:12.921Z,17.93
2019-05-21T12:28:44.649Z,17.93
2019-05-21T12:31:16.326Z,17.94
2019-05-21T12:33:48.376Z,17.96
2019-05-21T12:36:21.698Z,17.98
2019-05-21T12:38:53.531Z,18.00
2019-05-21T12:41:25.413Z,18.03
2019-05-21T12:43:57.118Z,18.07
2019-05-21T12:46:29.070Z,18.12
2019-05-21T12:49:00.720Z,18.16
2019-05-21T12:51:32.600Z,18.19
2019-05-21T12:54:07.269Z,18.22
2019-05-21T12:56:40.860Z,18.23
2019-05-21T12:59:12.739Z,18.18
2019-05-21T13:01:44.832Z,18.11
2019-05-21T13:04:16.811Z,18.05
2019-05-21T13:06:48.613Z,17.97
2019-05-21T13:09:32.472Z,17.90
2019-05-21T13:11:53.986Z,17.87
2019-05-21T13:14:25.698Z,17.83
2019-05-21T13:16:57.435Z,17.80
2019-05-21T13:19:29.280Z,17.78
2019-05-21T13:22:01.114Z,17.76
2019-05-21T13:24:32.833Z,17.74
2019-05-21T13:27:04.826Z,17.73
2019-05-21T13:29:36.671Z,17.72
2019-05-21T13:32:08.727Z,17.71
2019-05-21T13:34:41.055Z,17.70
2019-05-21T13:37:13.007Z,17.70
2019-05-21T13:39:49.908Z,17.69
2019-05-21T13:42:18.272Z,17.67
2019-05-21T13:44:49.988Z,17.66
2019-05-21T13:52:25.196Z,17.63
2019-05-21T13:54:57.270Z,17.63
2019-05-21T13:57:29.269Z,17.63
2019-05-21T14:00:01.413Z,17.61
2019-05-21T14:02:33.620Z,17.62
2019-05-21T14:05:06.178Z,17.60
2019-05-21T14:07:37.987Z,17.58
2019-05-21T14:10:18.325Z,17.55
2019-05-21T14:12:47.089Z,17.54
2019-05-21T14:15:19.314Z,17.53
2019-05-21T14:17:51.565Z,17.51
2019-05-21T14:20:23.656Z,17.51
2019-05-21T14:22:55.664Z,17.51
2019-05-21T14:25:28.441Z,17.52
2019-05-21T14:28:00.261Z,17.53
2019-05-21T14:30:32.178Z,17.55
2019-05-21T14:33:03.960Z,17.55
2019-05-21T14:35:36.249Z,17.58
2019-05-21T14:38:07.988Z,17.57
2019-05-21T14:40:42.003Z,17.58
2019-05-21T14:43:13.758Z,17.56
2019-05-21T14:45:46.313Z,17.55
2019-05-21T14:48:18.061Z,17.55
2019-05-21T14:50:49.815Z,17.56
2019-05-21T14:53:21.534Z,17.57
2019-05-21T14:55:53.576Z,17.58
2019-05-21T14:58:25.592Z,17.59
2019-05-21T15:00:57.756Z,17.58
2019-05-21T15:03:30.509Z,17.59
2019-05-21T15:06:02.346Z,17.59
2019-05-21T15:08:34.245Z,17.59
2019-05-21T15:11:06.354Z,17.58
2019-05-21T15:13:38.214Z,17.57
2019-05-21T15:16:10.461Z,17.56
2019-05-21T15:18:42.280Z,17.56
2019-05-21T15:21:28.259Z,17.55
2019-05-21T15:24:00.051Z,17.54
2019-05-21T15:26:31.955Z,17.56
2019-05-21T15:29:04.039Z,17.54
2019-05-21T15:31:36.501Z,17.54
2019-05-21T15:34:08.407Z,17.55
2019-05-21T15:36:40.551Z,17.58
2019-05-21T15:39:12.518Z,17.57
2019-05-21T15:41:44.188Z,17.58
2019-05-21T15:44:15.948Z,17.60
2019-05-21T15:46:50.717Z,17.59
2019-05-21T15:49:35.124Z,17.60
2019-05-21T15:51:55.406Z,17.61
2019-05-21T15:54:27.302Z,17.62
2019-05-21T15:56:59.072Z,17.64
2019-05-21T15:59:30.826Z,17.65
2019-05-21T16:02:03.037Z,17.66
2019-05-21T16:04:35.048Z,17.65
2019-05-21T16:07:06.888Z,17.66
2019-05-21T16:09:38.614Z,17.67
2019-05-21T16:12:10.596Z,17.66
2019-05-21T16:14:42.520Z,17.65
2019-05-21T16:17:15.037Z,17.64
2019-05-21T16:19:47.032Z,17.62
2019-05-21T16:22:19.535Z,17.61
2019-05-21T16:24:51.962Z,17.59
2019-05-21T16:27:23.672Z,17.58
2019-05-21T16:29:55.605Z,17.56
2019-05-21T16:32:27.683Z,17.55
2019-05-21T16:35:00.878Z,17.52
2019-05-21T16:37:32.929Z,17.46
2019-05-21T16:40:04.927Z,17.45
2019-05-21T16:42:37.231Z,17.42
2019-05-21T16:45:09.500Z,17.40
2019-05-21T16:47:46.173Z,17.36
2019-05-21T16:50:17.161Z,17.35
2019-05-21T16:52:49.126Z,17.29
2019-05-21T16:55:22.142Z,17.29
2019-05-21T16:57:56.332Z,17.29
2019-05-21T17:00:28.278Z,17.26
2019-05-21T17:03:00.270Z,17.26
2019-05-21T17:05:33.128Z,17.26
2019-05-21T17:08:05.609Z,17.26
2019-05-21T17:10:37.744Z,17.25
2019-05-21T17:13:09.849Z,17.25
2019-05-21T17:15:42.072Z,17.24
2019-05-21T17:18:15.388Z,17.22
2019-05-21T17:20:47.834Z,17.20
2019-05-21T17:23:19.616Z,17.20
2019-05-21T17:25:51.689Z,17.19
2019-05-21T17:28:23.838Z,17.17
2019-05-21T17:30:55.849Z,17.17
2019-05-21T17:33:27.631Z,17.16
2019-05-21T17:36:00.323Z,17.16
2019-05-21T17:38:32.470Z,17.14
2019-05-21T17:41:04.601Z,17.12
2019-05-21T17:43:36.590Z,17.09
2019-05-21T17:46:08.675Z,17.08
2019-05-21T17:48:40.941Z,17.07
2019-05-21T17:51:13.887Z,17.06
2019-05-21T17:53:45.611Z,17.05
2019-05-21T17:56:17.563Z,17.05
2019-05-21T17:58:49.478Z,17.04
2019-05-21T18:01:22.600Z,17.02
2019-05-21T18:03:54.831Z,17.01
2019-05-21T18:06:27.496Z,17.00
2019-05-21T18:08:59.588Z,16.98
2019-05-21T18:11:31.347Z,16.97
2019-05-21T18:14:04.625Z,16.96
2019-05-21T18:16:37.094Z,16.94
2019-05-21T18:19:09.023Z,16.93
2019-05-21T18:21:41.994Z,16.90
2019-05-21T18:24:13.985Z,16.90
2019-05-21T18:26:47.794Z,16.88
2019-05-21T18:29:23.461Z,16.86
2019-05-21T18:31:57.320Z,16.84
2019-05-21T18:34:29.248Z,16.84
2019-05-21T18:37:02.061Z,16.84
2019-05-21T18:39:34.579Z,16.84
2019-05-21T18:42:20.970Z,16.85
2019-05-21T18:44:40.338Z,16.85
2019-05-21T18:47:13.383Z,16.87
2019-05-21T18:49:45.367Z,16.87
2019-05-21T18:52:17.467Z,16.89
2019-05-21T18:54:49.451Z,16.90
2019-05-21T18:57:21.781Z,16.91
2019-05-21T18:59:53.798Z,16.91
2019-05-21T19:02:25.943Z,16.93
2019-05-21T19:04:57.697Z,16.95
2019-05-21T19:07:30.008Z,16.98
2019-05-21T19:10:03.156Z,16.99
2019-05-21T19:12:38.117Z,16.99
2019-05-21T19:15:09.609Z,16.97
2019-05-21T19:17:41.773Z,16.99
2019-05-21T19:20:21.646Z,16.99
2019-05-21T19:22:54.109Z,16.99
2019-05-21T19:25:26.291Z,16.97
2019-05-21T19:27:58.296Z,16.97
2019-05-21T19:30:30.544Z,16.93
2019-05-21T19:33:02.577Z,16.93
2019-05-21T19:35:34.602Z,16.95
2019-05-21T19:38:07.014Z,16.94
2019-05-21T19:40:38.917Z,16.94
2019-05-21T19:43:10.908Z,16.93
2019-05-21T19:45:43.051Z,16.94
2019-05-21T19:48:17.598Z,16.93
2019-05-21T19:50:49.613Z,16.94
2019-05-21T19:53:21.997Z,16.94
2019-05-21T19:55:56.098Z,16.94
2019-05-21T19:58:28.011Z,16.94
2019-05-21T20:01:00.634Z,16.94
2019-05-21T20:03:32.756Z,16.93
2019-05-21T20:06:06.130Z,16.93
2019-05-21T20:08:38.268Z,16.93
2019-05-21T20:11:11.898Z,16.93
2019-05-21T20:13:43.727Z,16.94
2019-05-21T20:16:17.001Z,16.94
2019-05-21T20:18:48.887Z,16.95
2019-05-21T20:21:22.702Z,16.98
2019-05-21T20:23:54.958Z,16.97
2019-05-21T20:26:29.405Z,16.98
2019-05-21T20:29:01.420Z,16.98
2019-05-21T20:31:33.434Z,16.97
2019-05-21T20:34:07.221Z,16.98
2019-05-21T20:36:40.810Z,16.98
2019-05-21T20:39:19.238Z,16.97
2019-05-21T20:41:53.151Z,16.96
2019-05-21T20:44:24.990Z,16.97
2019-05-21T20:46:59.061Z,16.98
2019-05-21T20:49:31.460Z,16.98
2019-05-21T20:52:17.999Z,16.99
2019-05-21T20:54:39.295Z,17.00
2019-05-21T20:57:13.628Z,17.00
2019-05-21T20:59:45.706Z,17.00
2019-05-21T21:02:18.644Z,17.02
2019-05-21T21:04:50.941Z,17.02
2019-05-21T21:07:23.102Z,17.03
2019-05-21T21:09:54.998Z,17.02
2019-05-21T21:12:28.197Z,17.02
2019-05-21T21:15:00.723Z,17.01
2019-05-21T21:17:32.505Z,17.03
2019-05-21T21:20:04.652Z,17.03
2019-05-21T21:22:36.819Z,17.03
2019-05-21T21:25:10.327Z,17.04
2019-05-21T21:27:42.931Z,17.03
2019-05-21T21:30:15.531Z,17.03
2019-05-21T21:32:47.777Z,17.01
2019-05-21T21:35:19.690Z,17.00
2019-05-21T21:37:51.780Z,16.98
2019-05-21T21:40:24.923Z,16.98
2019-05-21T21:42:57.972Z,16.96
2019-05-21T21:45:29.979Z,16.94
2019-05-21T21:48:02.533Z,16.92
2019-05-21T21:50:37.401Z,16.90
2019-05-21T21:53:10.477Z,16.90
2019-05-21T21:55:45.106Z,16.89
2019-05-21T21:58:17.707Z,16.89
2019-05-21T22:01:35.161Z,16.87
2019-05-21T22:05:35.395Z,16.87
2019-05-21T22:08:07.733Z,16.85
2019-05-21T22:10:39.838Z,16.83
2019-05-21T22:13:12.968Z,16.82
2019-05-21T22:15:45.473Z,16.83
2019-05-21T22:18:18.035Z,16.83
2019-05-21T22:20:50.391Z,16.82
2019-05-21T22:23:23.303Z,16.83
2019-05-21T22:25:55.096Z,16.82
2019-05-21T22:28:27.002Z,16.81
2019-05-21T22:31:03.611Z,16.82
2019-05-21T22:33:36.181Z,16.80
2019-05-21T22:36:08.124Z,16.77
2019-05-21T22:38:40.102Z,16.75
2019-05-21T22:41:12.124Z,16.75
2019-05-21T22:43:44.147Z,16.73
2019-05-21T22:46:16.324Z,16.73
2019-05-21T22:48:48.085Z,16.73
2019-05-21T22:51:20.016Z,16.71
2019-05-21T22:53:51.825Z,16.71
2019-05-21T22:56:23.513Z,16.70
2019-05-21T22:58:55.318Z,16.70
2019-05-21T23:01:29.612Z,16.70
2019-05-21T23:04:01.764Z,16.69
2019-05-21T23:06:33.676Z,16.69
2019-05-21T23:09:07.870Z,16.67
2019-05-21T23:11:39.578Z,16.65
2019-05-21T23:14:11.677Z,16.64
2019-05-21T23:16:44.439Z,16.62
2019-05-21T23:19:18.161Z,16.61
2019-05-21T23:21:51.868Z,16.59
2019-05-21T23:24:24.883Z,16.58
2019-05-21T23:26:57.096Z,16.58
2019-05-21T23:29:29.270Z,16.57
2019-05-21T23:32:01.452Z,16.56
2019-05-21T23:34:34.170Z,16.57
2019-05-21T23:37:07.943Z,16.59
2019-05-21T23:39:40.886Z,16.59
2019-05-21T23:42:28.336Z,16.59
2019-05-21T23:44:47.114Z,16.59
2019-05-21T23:47:48.454Z,16.60
2019-05-21T23:50:21.101Z,16.60
2019-05-21T23:52:54.233Z,16.60
2019-05-21T23:55:26.020Z,16.60
2019-05-21T23:57:57.869Z,16.60
